Time,TemperatureF,DewpointF,PressureIn,WindDirection,WindDirectionDegrees,WindSpeedMPH,WindSpeedGustMPH,Humidity,HourlyPrecipIn,Conditions,Clouds,dailyrainin,SoftwareType,DateUTC
2013-07-24 00:09:00,58.3,47.4,30.06,North,0,0.0,0.0,67,0.00,,---,0.00,VWS V14.01,2013-07-24 07:09:00,
2013-07-24 00:14:00,58.1,47.2,30.06,ENE,68,0.0,0.0,67,0.00,,---,0.00,VWS V14.01,2013-07-24 07:14:00,
2013-07-24 00:19:00,58.1,47.6,30.06,ENE,68,0.0,0.0,68,0.00,,---,0.00,VWS V14.01,2013-07-24 07:19:00,
2013-07-24 00:24:00,58.1,47.6,30.06,ENE,68,0.0,0.0,68,0.00,,---,0.00,VWS V14.01,2013-07-24 07:24:00,
2013-07-24 00:29:00,57.9,47.4,30.06,ENE,68,0.0,0.0,68,0.00,,---,0.00,VWS V14.01,2013-07-24 07:29:00,
2013-07-24 00:39:00,57.9,47.8,30.03,NNE,22,0.0,0.0,69,0.00,,---,0.00,VWS V14.01,2013-07-24 07:39:00,
2013-07-24 00:49:00,57.6,47.5,30.03,NNE,22,0.0,0.0,69,0.00,,---,0.00,VWS V14.01,2013-07-24 07:49:00,
2013-07-24 00:54:00,57.6,47.9,30.03,NNE,22,0.0,0.0,70,0.00,,---,0.00,VWS V14.01,2013-07-24 07:54:00,
2013-07-24 00:59:00,57.4,47.7,30.03,NNE,22,0.0,0.0,70,0.00,,---,0.00,VWS V14.01,2013-07-24 07:59:00,
2013-07-24 01:09:00,57.2,47.5,30.03,NNE,22,0.0,0.0,70,0.00,,---,0.00,VWS V14.01,2013-07-24 08:09:00,
2013-07-24 01:14:00,57.2,47.5,30.03,NNE,22,0.0,0.0,70,0.00,,---,0.00,VWS V14.01,2013-07-24 08:14:00,
2013-07-24 01:24:00,57.0,47.7,30.03,NNE,22,0.0,0.0,71,0.00,,---,0.00,VWS V14.01,2013-07-24 08:24:00,
2013-07-24 01:29:00,57.0,47.7,30.03,NNE,22,0.0,0.0,71,0.00,,---,0.00,VWS V14.01,2013-07-24 08:29:00,
2013-07-24 01:39:00,56.8,47.9,30.03,NNE,22,0.0,0.0,72,0.00,,---,0.00,VWS V14.01,2013-07-24 08:39:00,
2013-07-24 01:49:00,56.8,47.9,30.03,NNE,22,0.0,0.0,72,0.00,,---,0.00,VWS V14.01,2013-07-24 08:49:00,
2013-07-24 01:59:00,56.7,47.8,30.03,NNE,22,0.0,0.0,72,0.00,,---,0.00,VWS V14.01,2013-07-24 08:59:00,
2013-07-24 02:04:00,56.5,47.6,30.03,NNE,22,0.0,0.0,72,0.00,,---,0.00,VWS V14.01,2013-07-24 09:04:00,
2013-07-24 02:14:00,56.3,47.4,30.03,NNE,22,0.0,0.0,72,0.00,,---,0.00,VWS V14.01,2013-07-24 09:14:00,
2013-07-24 02:24:00,56.5,48.3,30.03,NNE,22,0.0,0.0,74,0.00,,---,0.00,VWS V14.01,2013-07-24 09:24:00,
2013-07-24 02:29:00,56.3,48.1,30.03,NNE,22,0.0,0.0,74,0.00,,---,0.00,VWS V14.01,2013-07-24 09:29:00,
2013-07-24 02:39:00,56.1,48.0,30.03,NNE,22,0.0,0.0,74,0.00,,---,0.00,VWS V14.01,2013-07-24 09:39:00,
2013-07-24 02:44:00,56.1,48.3,30.03,NE,45,0.0,0.0,75,0.00,,---,0.00,VWS V14.01,2013-07-24 09:44:00,
2013-07-24 02:54:00,56.3,48.5,30.03,NNE,22,0.0,0.0,75,0.00,,---,0.00,VWS V14.01,2013-07-24 09:54:00,
2013-07-24 02:59:00,56.3,48.5,30.03,NNE,22,0.0,0.0,75,0.00,,---,0.00,VWS V14.01,2013-07-24 09:59:00,
2013-07-24 03:09:00,56.1,48.7,30.03,NNE,22,0.0,0.0,76,0.00,,---,0.00,VWS V14.01,2013-07-24 10:09:00,
2013-07-24 03:14:00,55.9,48.5,30.03,ENE,68,0.0,0.0,76,0.00,,---,0.00,VWS V14.01,2013-07-24 10:14:00,
2013-07-24 03:19:00,55.9,48.5,30.03,ENE,68,0.0,2.0,76,0.00,,---,0.00,VWS V14.01,2013-07-24 10:19:00,
2013-07-24 03:29:00,55.8,48.7,30.03,ENE,68,0.0,0.0,77,0.00,,---,0.00,VWS V14.01,2013-07-24 10:29:00,
2013-07-24 03:39:00,55.8,48.7,30.03,NE,45,0.0,0.0,77,0.00,,---,0.00,VWS V14.01,2013-07-24 10:39:00,
2013-07-24 03:44:00,55.6,48.5,30.03,NE,45,0.0,0.0,77,0.00,,---,0.00,VWS V14.01,2013-07-24 10:44:00,
2013-07-24 03:49:00,55.4,48.3,30.03,NE,45,0.0,0.0,77,0.00,,---,0.00,VWS V14.01,2013-07-24 10:49:00,
2013-07-24 03:54:00,55.2,48.5,30.03,NE,45,0.0,0.0,78,0.00,,---,0.00,VWS V14.01,2013-07-24 10:54:00,
2013-07-24 03:59:00,55.2,48.8,30.03,NE,45,0.0,0.0,79,0.00,,---,0.00,VWS V14.01,2013-07-24 10:59:00,
2013-07-24 04:09:00,55.0,48.7,30.03,NE,45,0.0,0.0,79,0.00,,---,0.00,VWS V14.01,2013-07-24 11:09:00,
2013-07-24 04:19:00,54.9,48.8,30.03,NE,45,0.0,0.0,80,0.00,,---,0.00,VWS V14.01,2013-07-24 11:19:00,
2013-07-24 04:24:00,54.9,48.8,30.03,NE,45,0.0,0.0,80,0.00,,---,0.00,VWS V14.01,2013-07-24 11:24:00,
2013-07-24 04:29:00,54.9,49.2,30.03,NE,45,0.0,0.0,81,0.00,,---,0.00,VWS V14.01,2013-07-24 11:29:00,
2013-07-24 04:39:00,54.9,49.2,30.03,NE,45,0.0,0.0,81,0.00,,---,0.00,VWS V14.01,2013-07-24 11:39:00,
2013-07-24 04:44:00,54.9,49.2,30.03,NE,45,0.0,0.0,81,0.00,,---,0.00,VWS V14.01,2013-07-24 11:44:00,
2013-07-24 04:54:00,54.5,48.8,30.03,NE,45,0.0,0.0,81,0.00,,---,0.00,VWS V14.01,2013-07-24 11:54:00,
2013-07-24 04:59:00,54.5,48.8,30.03,NE,45,0.0,0.0,81,0.00,,---,0.00,VWS V14.01,2013-07-24 11:59:00,
2013-07-24 05:09:00,54.3,49.0,30.03,NE,45,0.0,0.0,82,0.00,,---,0.00,VWS V14.01,2013-07-24 12:09:00,
2013-07-24 05:19:00,54.1,48.8,30.03,NE,45,0.0,0.0,82,0.00,,---,0.00,VWS V14.01,2013-07-24 12:19:00,
2013-07-24 05:29:00,54.0,48.6,30.03,NE,45,0.0,0.0,82,0.00,,---,0.00,VWS V14.01,2013-07-24 12:29:00,
2013-07-24 05:40:00,54.0,48.9,30.03,NE,45,0.0,0.0,83,0.00,,---,0.00,VWS V14.01,2013-07-24 12:40:00,
2013-07-24 05:49:00,53.8,48.8,30.03,NE,45,0.0,0.0,83,0.00,,---,0.00,VWS V14.01,2013-07-24 12:49:00,
2013-07-24 05:54:00,53.8,49.1,30.03,NE,45,0.0,0.0,84,0.00,,---,0.00,VWS V14.01,2013-07-24 12:54:00,
2013-07-24 05:59:00,54.0,49.2,30.03,NE,45,0.0,0.0,84,0.00,,---,0.00,VWS V14.01,2013-07-24 12:59:00,
2013-07-24 06:09:00,54.1,49.4,30.03,North,0,0.0,0.0,84,0.00,,---,0.00,VWS V14.01,2013-07-24 13:09:00,
2013-07-24 06:19:00,54.3,49.9,30.06,North,0,0.0,0.0,85,0.00,,---,0.00,VWS V14.01,2013-07-24 13:19:00,
2013-07-24 06:24:00,54.5,49.8,30.06,North,0,0.0,0.0,84,0.00,,---,0.00,VWS V14.01,2013-07-24 13:24:00,
2013-07-24 06:29:00,54.3,49.6,30.06,North,0,0.0,0.0,84,0.00,,---,0.00,VWS V14.01,2013-07-24 13:29:00,
2013-07-24 06:39:00,54.5,49.8,30.06,NNE,22,0.0,0.0,84,0.00,,---,0.00,VWS V14.01,2013-07-24 13:39:00,
2013-07-24 06:44:00,54.7,50.3,30.06,NNE,22,0.0,0.0,85,0.00,,---,0.00,VWS V14.01,2013-07-24 13:44:00,
2013-07-24 06:54:00,55.0,50.6,30.06,NNW,338,0.0,0.0,85,0.00,,---,0.00,VWS V14.01,2013-07-24 13:54:00,
2013-07-24 06:59:00,55.4,51.0,30.06,NNW,338,0.0,0.0,85,0.00,,---,0.00,VWS V14.01,2013-07-24 13:59:00,
2013-07-24 07:09:00,56.1,52.0,30.06,ENE,68,0.0,0.0,86,0.00,,---,0.00,VWS V14.01,2013-07-24 14:09:00,
2013-07-24 07:14:00,56.5,52.3,30.06,ENE,68,0.0,0.0,86,0.00,,---,0.00,VWS V14.01,2013-07-24 14:14:00,
2013-07-24 07:24:00,57.2,52.7,30.06,ESE,112,1.1,2.5,85,0.00,,---,0.00,VWS V14.01,2013-07-24 14:24:00,
2013-07-24 07:29:00,57.9,53.8,30.06,ENE,68,0.0,2.5,86,0.00,,---,0.00,VWS V14.01,2013-07-24 14:29:00,
2013-07-24 07:39:00,60.6,56.7,30.06,ENE,68,0.0,1.1,87,0.00,,---,0.00,VWS V14.01,2013-07-24 14:39:00,
2013-07-24 07:49:00,63.5,57.6,30.06,ENE,68,0.0,1.3,81,0.00,,---,0.00,VWS V14.01,2013-07-24 14:49:00,
2013-07-24 07:54:00,63.9,57.2,30.06,East,90,0.0,2.7,79,0.00,,---,0.00,VWS V14.01,2013-07-24 14:54:00,
2013-07-24 07:59:00,64.9,57.6,30.06,ENE,68,0.0,0.0,77,0.00,,---,0.00,VWS V14.01,2013-07-24 14:59:00,
2013-07-24 08:09:00,66.7,57.0,30.06,ESE,112,0.0,1.6,71,0.00,,---,0.00,VWS V14.01,2013-07-24 15:09:00,
2013-07-24 08:14:00,67.6,57.1,30.06,ESE,112,0.0,0.0,69,0.00,,---,0.00,VWS V14.01,2013-07-24 15:14:00,
2013-07-24 08:24:00,68.5,55.5,30.09,SSW,202,1.1,3.1,63,0.00,,---,0.00,VWS V14.01,2013-07-24 15:24:00,
2013-07-24 08:29:00,68.5,53.2,30.09,SSE,158,2.5,4.3,58,0.00,,---,0.00,VWS V14.01,2013-07-24 15:29:00,
2013-07-24 08:39:00,69.4,53.6,30.06,SSW,202,0.0,3.6,57,0.00,,---,0.00,VWS V14.01,2013-07-24 15:39:00,
2013-07-24 08:49:00,70.7,53.3,30.06,ESE,112,0.9,3.8,54,0.00,,---,0.00,VWS V14.01,2013-07-24 15:49:00,
2013-07-24 08:59:00,71.6,52.5,30.06,SSW,202,1.1,3.1,51,0.00,,---,0.00,VWS V14.01,2013-07-24 15:59:00,
2013-07-24 09:09:00,72.3,52.1,30.06,SSE,158,3.1,4.3,49,0.00,,---,0.00,VWS V14.01,2013-07-24 16:09:00,
2013-07-24 09:14:00,72.7,51.9,30.06,South,180,2.9,3.1,48,0.00,,---,0.00,VWS V14.01,2013-07-24 16:14:00,
2013-07-24 09:24:00,73.8,51.1,30.09,SSW,202,2.0,4.0,45,0.00,,---,0.00,VWS V14.01,2013-07-24 16:24:00,
2013-07-24 09:29:00,74.1,50.8,30.09,South,180,2.5,4.0,44,0.00,,---,0.00,VWS V14.01,2013-07-24 16:29:00,
2013-07-24 09:39:00,75.9,51.2,30.06,NW,315,0.9,3.6,42,0.00,,---,0.00,VWS V14.01,2013-07-24 16:39:00,
2013-07-24 09:49:00,77.2,51.7,30.03,WSW,248,1.6,3.1,41,0.00,,---,0.00,VWS V14.01,2013-07-24 16:49:00,
2013-07-24 09:59:00,77.4,50.5,30.03,WSW,248,2.2,4.3,39,0.00,,---,0.00,VWS V14.01,2013-07-24 16:59:00,
2013-07-24 10:04:00,77.5,50.0,30.06,South,180,2.5,4.7,38,0.00,,---,0.00,VWS V14.01,2013-07-24 17:04:00,
2013-07-24 10:09:00,78.3,50.6,30.06,SSW,202,0.0,4.3,38,0.00,,---,0.00,VWS V14.01,2013-07-24 17:09:00,
2013-07-24 10:19:00,79.3,50.1,30.06,West,270,2.7,4.7,36,0.00,,---,0.00,VWS V14.01,2013-07-24 17:19:00,
2013-07-24 10:24:00,80.6,50.5,30.06,WSW,248,2.5,2.7,35,0.00,,---,0.00,VWS V14.01,2013-07-24 17:24:00,
2013-07-24 10:29:00,80.1,49.2,30.06,WNW,292,2.5,4.0,34,0.00,,---,0.00,VWS V14.01,2013-07-24 17:29:00,
2013-07-24 10:39:00,81.9,50.0,30.03,NNW,338,0.0,3.1,33,0.00,,---,0.00,VWS V14.01,2013-07-24 17:39:00,
2013-07-24 10:44:00,81.7,48.1,30.03,NNE,22,2.5,5.8,31,0.00,,---,0.00,VWS V14.01,2013-07-24 17:44:00,
2013-07-24 10:49:00,82.4,48.8,30.03,SSW,202,3.8,4.3,31,0.00,,---,0.00,VWS V14.01,2013-07-24 17:49:00,
2013-07-24 10:59:00,82.2,47.7,30.03,SSW,202,2.5,6.3,30,0.00,,---,0.00,VWS V14.01,2013-07-24 17:59:00,
2013-07-24 11:09:00,83.1,47.6,30.06,SW,225,3.6,4.0,29,0.00,,---,0.00,VWS V14.01,2013-07-24 18:09:00,
2013-07-24 11:19:00,84.0,48.4,30.06,WNW,292,2.9,6.3,29,0.00,,---,0.00,VWS V14.01,2013-07-24 18:19:00,
2013-07-24 11:24:00,83.7,47.1,30.06,WSW,248,2.5,5.4,28,0.00,,---,0.00,VWS V14.01,2013-07-24 18:24:00,
2013-07-24 11:29:00,83.5,47.9,30.06,WSW,248,1.3,3.6,29,0.00,,---,0.00,VWS V14.01,2013-07-24 18:29:00,
2013-07-24 11:39:00,85.1,45.4,30.06,NNW,338,0.0,7.6,25,0.00,,---,0.00,VWS V14.01,2013-07-24 18:39:00,
2013-07-24 11:44:00,85.6,45.8,30.06,SSE,158,3.4,3.8,25,0.00,,---,0.00,VWS V14.01,2013-07-24 18:44:00,
2013-07-24 11:54:00,84.6,42.7,30.06,WSW,248,4.0,6.5,23,0.00,,---,0.00,VWS V14.01,2013-07-24 18:54:00,
2013-07-24 11:59:00,85.1,43.2,30.06,NNE,22,2.0,4.9,23,0.00,,---,0.00,VWS V14.01,2013-07-24 18:59:00,
2013-07-24 12:09:00,87.3,43.8,30.06,SW,225,1.6,4.0,22,0.00,,---,0.00,VWS V14.01,2013-07-24 19:09:00,
2013-07-24 12:19:00,88.7,43.8,30.06,SW,225,3.6,3.6,21,0.00,,---,0.00,VWS V14.01,2013-07-24 19:19:00,
2013-07-24 12:24:00,87.6,41.6,30.06,NNE,22,3.4,4.9,20,0.00,,---,0.00,VWS V14.01,2013-07-24 19:24:00,
2013-07-24 12:29:00,87.8,41.8,30.06,NNW,338,3.1,4.7,20,0.00,,---,0.00,VWS V14.01,2013-07-24 19:29:00,
2013-07-24 12:34:00,88.2,42.1,30.06,NNE,22,1.6,5.4,20,0.00,,---,0.00,VWS V14.01,2013-07-24 19:34:00,
2013-07-24 12:39:00,89.2,43.0,30.06,West,270,2.0,4.0,20,0.00,,---,0.00,VWS V14.01,2013-07-24 19:39:00,
2013-07-24 12:49:00,89.4,41.8,30.03,West,270,2.9,4.9,19,0.00,,---,0.00,VWS V14.01,2013-07-24 19:49:00,
2013-07-24 12:54:00,90.3,42.5,30.03,SSW,202,2.5,2.9,19,0.00,,---,0.00,VWS V14.01,2013-07-24 19:54:00,
2013-07-24 12:59:00,90.1,41.0,30.03,SE,135,2.2,4.3,18,0.00,,---,0.00,VWS V14.01,2013-07-24 19:59:00,
2013-07-24 13:09:00,91.0,41.7,30.03,WSW,248,2.5,4.3,18,0.00,,---,0.00,VWS V14.01,2013-07-24 20:09:00,
2013-07-24 13:19:00,90.1,39.5,30.03,SW,225,4.9,5.6,17,0.00,,---,0.00,VWS V14.01,2013-07-24 20:19:00,
2013-07-24 13:29:00,90.1,41.0,30.03,WNW,292,2.0,5.8,18,0.00,,---,0.00,VWS V14.01,2013-07-24 20:29:00,
2013-07-24 13:40:00,90.7,39.9,30.03,WSW,248,3.1,4.0,17,0.00,,---,0.00,VWS V14.01,2013-07-24 20:40:00,
2013-07-24 13:49:00,90.5,36.6,30.03,NW,315,1.6,4.3,15,0.00,,---,0.00,VWS V14.01,2013-07-24 20:49:00,
2013-07-24 13:54:00,90.7,31.2,30.03,SSW,202,2.7,5.8,12,0.00,,---,0.00,VWS V14.01,2013-07-24 20:54:00,
2013-07-24 13:59:00,91.2,31.6,30.03,WNW,292,0.0,4.9,12,0.00,,---,0.00,VWS V14.01,2013-07-24 20:59:00,
2013-07-24 14:09:00,91.2,27.1,30.03,North,0,2.9,5.4,10,0.00,,---,0.00,VWS V14.01,2013-07-24 21:09:00,
2013-07-24 14:14:00,91.6,24.8,30.03,SW,225,2.7,5.6,9,0.00,,---,0.00,VWS V14.01,2013-07-24 21:14:00,
2013-07-24 14:19:00,93.0,33.0,30.03,NE,45,2.0,4.3,12,0.00,,---,0.00,VWS V14.01,2013-07-24 21:19:00,
2013-07-24 14:25:00,93.9,26.6,30.03,NW,315,3.6,5.4,9,0.00,,---,0.00,VWS V14.01,2013-07-24 21:25:00,
2013-07-24 14:34:00,93.6,26.3,30.03,SSW,202,1.6,3.8,9,0.00,,---,0.00,VWS V14.01,2013-07-24 21:34:00,
2013-07-24 14:44:00,94.6,27.1,30.03,SW,225,1.3,6.5,9,0.00,,---,0.00,VWS V14.01,2013-07-24 21:44:00,
2013-07-24 14:54:00,94.1,26.7,30.00,North,0,2.9,6.3,9,0.00,,---,0.00,VWS V14.01,2013-07-24 21:54:00,
2013-07-24 14:59:00,93.7,26.5,30.00,NNW,338,3.1,4.0,9,0.00,,---,0.00,VWS V14.01,2013-07-24 21:59:00,
2013-07-24 15:09:00,93.6,16.8,30.00,North,0,2.7,4.3,6,0.00,,---,0.00,VWS V14.01,2013-07-24 22:09:00,
2013-07-24 15:14:00,93.7,16.9,30.00,NNW,338,2.0,6.0,6,0.00,,---,0.00,VWS V14.01,2013-07-24 22:14:00,
2013-07-24 15:19:00,93.4,16.6,30.00,West,270,2.9,4.7,6,0.00,,---,0.00,VWS V14.01,2013-07-24 22:19:00,
2013-07-24 15:24:00,94.8,17.7,30.00,WSW,248,2.5,3.8,6,0.00,,---,0.00,VWS V14.01,2013-07-24 22:24:00,
2013-07-24 15:29:00,94.1,17.1,30.00,West,270,1.6,6.5,6,0.00,,---,0.00,VWS V14.01,2013-07-24 22:29:00,
2013-07-24 15:39:00,93.6,16.8,29.97,SSW,202,2.5,6.5,6,0.00,,---,0.00,VWS V14.01,2013-07-24 22:39:00,
2013-07-24 15:49:00,94.3,17.3,30.00,SW,225,2.9,4.9,6,0.00,,---,0.00,VWS V14.01,2013-07-24 22:49:00,
2013-07-24 15:54:00,94.8,17.7,30.00,SSW,202,1.6,3.4,6,0.00,,---,0.00,VWS V14.01,2013-07-24 22:54:00,
2013-07-24 15:59:00,94.6,17.5,30.00,SSW,202,3.4,7.6,6,0.00,,---,0.00,VWS V14.01,2013-07-24 22:59:00,
2013-07-24 16:09:00,95.2,27.5,30.00,WSW,248,2.0,3.1,9,0.00,,---,0.00,VWS V14.01,2013-07-24 23:09:00,
2013-07-24 16:14:00,95.2,27.5,30.00,NNW,338,1.3,4.0,9,0.00,,---,0.00,VWS V14.01,2013-07-24 23:14:00,
2013-07-24 16:19:00,93.7,26.5,30.00,WSW,248,6.0,7.2,9,0.00,,---,0.00,VWS V14.01,2013-07-24 23:19:00,
2013-07-24 16:24:00,92.1,25.2,30.00,WSW,248,2.9,6.0,9,0.00,,---,0.00,VWS V14.01,2013-07-24 23:24:00,
2013-07-24 16:29:00,92.3,25.4,30.00,West,270,1.3,6.5,9,0.00,,---,0.00,VWS V14.01,2013-07-24 23:29:00,
2013-07-24 16:39:00,90.7,26.7,30.00,SW,225,4.0,4.9,10,0.00,,---,0.00,VWS V14.01,2013-07-24 23:39:00,
2013-07-24 16:44:00,91.8,25.0,30.00,WSW,248,0.0,6.3,9,0.00,,---,0.00,VWS V14.01,2013-07-24 23:44:00,
2013-07-24 16:49:00,92.1,25.2,30.00,WSW,248,1.6,4.3,9,0.00,,---,0.00,VWS V14.01,2013-07-24 23:49:00,
2013-07-24 16:54:00,91.9,25.1,30.00,NW,315,3.4,7.4,9,0.00,,---,0.00,VWS V14.01,2013-07-24 23:54:00,
2013-07-24 16:59:00,91.8,25.0,30.00,WSW,248,2.5,3.8,9,0.00,,---,0.00,VWS V14.01,2013-07-24 23:59:00,
2013-07-24 17:09:00,91.2,27.1,30.00,SW,225,2.5,4.7,10,0.00,,---,0.00,VWS V14.01,2013-07-25 00:09:00,
2013-07-24 17:14:00,90.1,30.7,30.00,SW,225,1.1,6.0,12,0.00,,---,0.00,VWS V14.01,2013-07-25 00:14:00,
2013-07-24 17:24:00,89.6,30.3,30.00,West,270,2.5,4.3,12,0.00,,---,0.00,VWS V14.01,2013-07-25 00:24:00,
2013-07-24 17:29:00,89.2,32.0,30.00,WSW,248,1.3,6.3,13,0.00,,---,0.00,VWS V14.01,2013-07-25 00:29:00,
2013-07-24 17:39:00,89.2,35.6,30.00,WSW,248,1.3,4.7,15,0.00,,---,0.00,VWS V14.01,2013-07-25 00:39:00,
2013-07-24 17:44:00,89.6,35.9,30.00,WSW,248,2.7,2.7,15,0.00,,---,0.00,VWS V14.01,2013-07-25 00:44:00,
2013-07-24 17:49:00,88.7,35.2,30.00,WSW,248,2.0,3.4,15,0.00,,---,0.00,VWS V14.01,2013-07-25 00:49:00,
2013-07-24 17:54:00,88.3,34.9,30.00,SSW,202,1.3,3.4,15,0.00,,---,0.00,VWS V14.01,2013-07-25 00:54:00,
2013-07-24 17:59:00,88.2,34.7,30.00,NNW,338,2.5,4.5,15,0.00,,---,0.00,VWS V14.01,2013-07-25 00:59:00,
2013-07-24 18:09:00,86.7,38.2,29.97,SSW,202,2.5,4.9,18,0.00,,---,0.00,VWS V14.01,2013-07-25 01:09:00,
2013-07-24 18:14:00,85.6,38.7,29.97,NNW,338,1.6,4.9,19,0.00,,---,0.00,VWS V14.01,2013-07-25 01:14:00,
2013-07-24 18:19:00,85.1,38.2,30.00,SSW,202,2.2,3.6,19,0.00,,---,0.00,VWS V14.01,2013-07-25 01:19:00,
2013-07-24 18:24:00,84.9,38.1,30.00,WSW,248,2.2,3.6,19,0.00,,---,0.00,VWS V14.01,2013-07-25 01:24:00,
2013-07-24 18:29:00,84.4,37.7,30.00,WSW,248,3.8,4.0,19,0.00,,---,0.00,VWS V14.01,2013-07-25 01:29:00,
2013-07-24 18:39:00,83.1,37.9,29.97,WSW,248,0.0,3.8,20,0.00,,---,0.00,VWS V14.01,2013-07-25 01:39:00,
2013-07-24 18:49:00,80.1,37.8,29.97,SW,225,4.0,5.6,22,0.00,,---,0.00,VWS V14.01,2013-07-25 01:49:00,
2013-07-24 18:54:00,77.7,38.1,29.97,WSW,248,1.1,4.3,24,0.00,,---,0.00,VWS V14.01,2013-07-25 01:54:00,
2013-07-24 18:59:00,76.5,39.1,29.97,WSW,248,0.0,4.0,26,0.00,,---,0.00,VWS V14.01,2013-07-25 01:59:00,
2013-07-24 19:09:00,74.7,41.2,29.97,SW,225,1.1,2.9,30,0.00,,---,0.00,VWS V14.01,2013-07-25 02:09:00,
2013-07-24 19:14:00,74.1,41.6,29.97,North,0,2.2,2.7,31,0.00,,---,0.00,VWS V14.01,2013-07-25 02:14:00,
2013-07-24 19:24:00,73.2,41.6,29.97,WSW,248,1.6,2.5,32,0.00,,---,0.00,VWS V14.01,2013-07-25 02:24:00,
2013-07-24 19:29:00,72.9,42.1,29.97,West,270,0.9,4.3,33,0.00,,---,0.00,VWS V14.01,2013-07-25 02:29:00,
2013-07-24 19:39:00,72.0,42.1,29.97,WSW,248,0.0,3.8,34,0.00,,---,0.00,VWS V14.01,2013-07-25 02:39:00,
2013-07-24 19:49:00,71.6,41.8,29.97,WSW,248,0.0,2.9,34,0.00,,---,0.00,VWS V14.01,2013-07-25 02:49:00,
2013-07-24 19:54:00,70.7,42.5,29.97,WSW,248,0.0,3.4,36,0.00,,---,0.00,VWS V14.01,2013-07-25 02:54:00,
2013-07-24 19:59:00,70.0,41.8,29.97,SW,225,2.5,3.1,36,0.00,,---,0.00,VWS V14.01,2013-07-25 02:59:00,
2013-07-24 20:09:00,68.9,43.0,29.97,WSW,248,0.0,3.8,39,0.00,,---,0.00,VWS V14.01,2013-07-25 03:09:00,
2013-07-24 20:19:00,68.0,44.1,30.00,WSW,248,1.3,3.8,42,0.00,,---,0.00,VWS V14.01,2013-07-25 03:19:00,
2013-07-24 20:24:00,67.5,44.2,30.00,WSW,248,2.0,2.9,43,0.00,,---,0.00,VWS V14.01,2013-07-25 03:24:00,
2013-07-24 20:29:00,67.1,44.5,30.00,NNW,338,0.0,2.5,44,0.00,,---,0.00,VWS V14.01,2013-07-25 03:29:00,
2013-07-24 20:39:00,66.2,44.2,30.00,WNW,292,0.0,2.0,45,0.00,,---,0.00,VWS V14.01,2013-07-25 03:39:00,
2013-07-24 20:49:00,65.5,44.2,30.00,NW,315,0.0,0.0,46,0.00,,---,0.00,VWS V14.01,2013-07-25 03:49:00,
2013-07-24 20:54:00,65.1,44.4,30.00,NW,315,0.0,2.2,47,0.00,,---,0.00,VWS V14.01,2013-07-25 03:54:00,
2013-07-24 20:59:00,64.8,44.1,30.00,NNW,338,0.0,1.1,47,0.00,,---,0.00,VWS V14.01,2013-07-25 03:59:00,
2013-07-24 21:04:00,64.4,43.8,30.00,NNW,338,0.0,0.0,47,0.00,,---,0.00,VWS V14.01,2013-07-25 04:04:00,
2013-07-24 21:09:00,64.0,44.0,30.00,West,270,0.0,0.0,48,0.00,,---,0.00,VWS V14.01,2013-07-25 04:09:00,
2013-07-24 21:14:00,63.7,45.2,30.00,WSW,248,0.0,2.5,51,0.00,,---,0.00,VWS V14.01,2013-07-25 04:14:00,
2013-07-24 21:19:00,63.5,45.1,30.00,NW,315,0.0,0.0,51,0.00,,---,0.00,VWS V14.01,2013-07-25 04:19:00,
2013-07-24 21:24:00,63.1,45.2,30.00,West,270,0.0,1.3,52,0.00,,---,0.00,VWS V14.01,2013-07-25 04:24:00,
2013-07-24 21:29:00,62.8,44.9,30.00,ESE,112,0.0,0.0,52,0.00,,---,0.00,VWS V14.01,2013-07-25 04:29:00,
2013-07-24 21:34:00,62.6,45.2,30.00,SSE,158,0.0,0.0,53,0.00,,---,0.00,VWS V14.01,2013-07-25 04:34:00,
2013-07-24 21:39:00,62.2,45.4,30.00,NNW,338,0.0,0.0,54,0.00,,---,0.00,VWS V14.01,2013-07-25 04:39:00,
2013-07-24 21:44:00,62.1,45.7,30.00,WNW,292,0.0,0.0,55,0.00,,---,0.00,VWS V14.01,2013-07-25 04:44:00,
2013-07-24 21:49:00,61.7,45.4,29.97,NW,315,0.0,0.0,55,0.00,,---,0.00,VWS V14.01,2013-07-25 04:49:00,
2013-07-24 21:54:00,61.5,45.2,29.97,NW,315,1.3,1.3,55,0.00,,---,0.00,VWS V14.01,2013-07-25 04:54:00,
2013-07-24 22:04:00,61.2,45.8,29.97,NW,315,0.0,1.6,57,0.00,,---,0.00,VWS V14.01,2013-07-25 05:04:00,
2013-07-24 22:09:00,61.0,45.7,29.97,NW,315,0.0,0.0,57,0.00,,---,0.00,VWS V14.01,2013-07-25 05:09:00,
2013-07-24 22:14:00,60.6,46.2,29.97,NW,315,0.0,0.0,59,0.00,,---,0.00,VWS V14.01,2013-07-25 05:14:00,
2013-07-24 22:19:00,60.4,46.1,30.00,NW,315,0.0,0.0,59,0.00,,---,0.00,VWS V14.01,2013-07-25 05:19:00,
2013-07-24 22:24:00,60.3,45.9,30.00,WSW,248,0.0,0.0,59,0.00,,---,0.00,VWS V14.01,2013-07-25 05:24:00,
2013-07-24 22:29:00,60.3,46.3,30.00,WSW,248,0.0,1.6,60,0.00,,---,0.00,VWS V14.01,2013-07-25 05:29:00,
2013-07-24 22:39:00,60.1,46.6,30.00,West,270,0.0,0.0,61,0.00,,---,0.00,VWS V14.01,2013-07-25 05:39:00,
2013-07-24 22:49:00,59.7,47.1,30.00,West,270,0.0,1.6,63,0.00,,---,0.00,VWS V14.01,2013-07-25 05:49:00,
2013-07-24 22:54:00,59.7,47.5,30.00,WSW,248,0.0,0.0,64,0.00,,---,0.00,VWS V14.01,2013-07-25 05:54:00,
2013-07-24 22:59:00,59.7,48.0,30.00,WSW,248,0.0,1.3,65,0.00,,---,0.00,VWS V14.01,2013-07-25 05:59:00,
2013-07-24 23:09:00,59.5,48.2,30.00,WSW,248,0.0,0.0,66,0.00,,---,0.00,VWS V14.01,2013-07-25 06:09:00,
2013-07-24 23:14:00,59.5,48.2,30.00,SSW,202,0.0,2.2,66,0.00,,---,0.00,VWS V14.01,2013-07-25 06:14:00,
2013-07-24 23:19:00,59.4,48.4,30.00,SW,225,0.0,1.1,67,0.00,,---,0.00,VWS V14.01,2013-07-25 06:19:00,
2013-07-24 23:25:00,59.4,48.8,30.00,West,270,0.0,2.9,68,0.00,,---,0.00,VWS V14.01,2013-07-25 06:25:00,
2013-07-24 23:35:00,59.0,48.5,30.00,SE,135,0.0,1.6,68,0.00,,---,0.00,VWS V14.01,2013-07-25 06:35:00,
2013-07-24 23:44:00,58.6,48.5,30.00,SSE,158,0.0,0.0,69,0.00,,---,0.00,VWS V14.01,2013-07-25 06:44:00,
2013-07-24 23:49:00,58.5,48.3,30.00,SSW,202,0.0,0.0,69,0.00,,---,0.00,VWS V14.01,2013-07-25 06:49:00,
2013-07-24 23:54:00,58.3,48.5,30.00,SSW,202,0.0,0.0,70,0.00,,---,0.00,VWS V14.01,2013-07-25 06:54:00,
2013-07-24 23:59:00,58.3,48.5,30.00,SSE,158,0.0,0.0,70,0.00,,---,0.00,VWS V14.01,2013-07-25 06:59:00,